sensor_id;sensor_type;location;lat;lon;timestamp;pressure;altitude;pressure_sealevel;temperature;humidity
61870;BME280;47810;42.264;23.826;2023-05-29T00:00:11;93582.16;;;13.49;89.68
61870;BME280;47810;42.264;23.826;2023-05-29T00:02:39;93582.88;;;13.51;89.85
61870;BME280;47810;42.264;23.826;2023-05-29T00:05:05;93570.13;;;13.34;90.36
61870;BME280;47810;42.264;23.826;2023-05-29T00:07:31;93564.25;;;13.30;90.86
61870;BME280;47810;42.264;23.826;2023-05-29T00:09:58;93567.00;;;13.28;90.63
61870;BME280;47810;42.264;23.826;2023-05-29T00:12:23;93568.22;;;13.36;90.49
61870;BME280;47810;42.264;23.826;2023-05-29T00:14:49;93563.16;;;12.99;91.22
61870;BME280;47810;42.264;23.826;2023-05-29T00:17:15;93557.88;;;13.10;91.15
61870;BME280;47810;42.264;23.826;2023-05-29T00:19:42;93561.69;;;13.06;91.13
61870;BME280;47810;42.264;23.826;2023-05-29T00:22:08;93563.88;;;13.23;90.53
61870;BME280;47810;42.264;23.826;2023-05-29T00:24:33;93571.34;;;12.96;91.60
61870;BME280;47810;42.264;23.826;2023-05-29T00:27:00;93568.56;;;13.09;91.67
61870;BME280;47810;42.264;23.826;2023-05-29T00:29:26;93560.50;;;12.99;92.04
61870;BME280;47810;42.264;23.826;2023-05-29T00:31:52;93556.28;;;12.96;92.29
61870;BME280;47810;42.264;23.826;2023-05-29T00:34:21;93558.47;;;12.91;92.52
61870;BME280;47810;42.264;23.826;2023-05-29T00:36:47;93557.66;;;12.91;92.48
61870;BME280;47810;42.264;23.826;2023-05-29T00:39:13;93561.00;;;13.04;92.11
61870;BME280;47810;42.264;23.826;2023-05-29T00:41:39;93566.88;;;13.19;91.57
61870;BME280;47810;42.264;23.826;2023-05-29T00:44:05;93571.09;;;13.21;92.31
61870;BME280;47810;42.264;23.826;2023-05-29T00:46:31;93563.88;;;13.23;92.73
61870;BME280;47810;42.264;23.826;2023-05-29T00:48:57;93566.75;;;13.32;92.10
61870;BME280;47810;42.264;23.826;2023-05-29T00:51:24;93563.16;;;13.33;92.20
61870;BME280;47810;42.264;23.826;2023-05-29T00:53:50;93564.09;;;13.32;92.39
61870;BME280;47810;42.264;23.826;2023-05-29T00:56:18;93562.53;;;13.40;92.13
61870;BME280;47810;42.264;23.826;2023-05-29T00:58:46;93560.56;;;13.54;91.09
61870;BME280;47810;42.264;23.826;2023-05-29T01:01:13;93553.47;;;13.43;90.89
61870;BME280;47810;42.264;23.826;2023-05-29T01:03:39;93542.03;;;13.42;90.92
61870;BME280;47810;42.264;23.826;2023-05-29T01:06:05;93533.53;;;13.05;92.53
61870;BME280;47810;42.264;23.826;2023-05-29T01:08:31;93520.53;;;12.79;93.10
61870;BME280;47810;42.264;23.826;2023-05-29T01:11:04;93522.25;;;12.69;93.52
61870;BME280;47810;42.264;23.826;2023-05-29T01:13:33;93508.50;;;12.87;92.74
61870;BME280;47810;42.264;23.826;2023-05-29T01:16:08;93525.38;;;12.63;93.42
61870;BME280;47810;42.264;23.826;2023-05-29T01:28:54;93541.84;;;13.00;91.72
61870;BME280;47810;42.264;23.826;2023-05-29T01:31:23;93538.69;;;13.18;90.63
61870;BME280;47810;42.264;23.826;2023-05-29T01:33:53;93543.97;;;13.18;90.39
61870;BME280;47810;42.264;23.826;2023-05-29T01:36:19;93535.94;;;12.97;91.04
61870;BME280;47810;42.264;23.826;2023-05-29T01:38:45;93537.41;;;12.78;91.62
61870;BME280;47810;42.264;23.826;2023-05-29T01:41:10;93543.31;;;12.82;91.87
61870;BME280;47810;42.264;23.826;2023-05-29T01:43:36;93534.75;;;12.90;91.39
61870;BME280;47810;42.264;23.826;2023-05-29T01:46:02;93534.50;;;12.93;91.51
61870;BME280;47810;42.264;23.826;2023-05-29T01:48:28;93533.56;;;12.82;91.57
61870;BME280;47810;42.264;23.826;2023-05-29T01:50:54;93530.66;;;12.63;91.89
61870;BME280;47810;42.264;23.826;2023-05-29T01:53:20;93526.81;;;12.56;92.13
61870;BME280;47810;42.264;23.826;2023-05-29T01:55:46;93524.41;;;12.64;91.66
61870;BME280;47810;42.264;23.826;2023-05-29T01:58:11;93529.94;;;12.61;91.88
61870;BME280;47810;42.264;23.826;2023-05-29T02:00:38;93524.28;;;12.54;90.87
61870;BME280;47810;42.264;23.826;2023-05-29T02:03:03;93520.94;;;12.52;91.03
61870;BME280;47810;42.264;23.826;2023-05-29T02:05:29;93528.25;;;12.60;91.03
61870;BME280;47810;42.264;23.826;2023-05-29T02:07:55;93535.00;;;12.64;91.40
61870;BME280;47810;42.264;23.826;2023-05-29T02:10:20;93538.38;;;12.66;90.91
61870;BME280;47810;42.264;23.826;2023-05-29T02:12:46;93544.75;;;12.64;91.08
61870;BME280;47810;42.264;23.826;2023-05-29T02:15:11;93541.63;;;12.58;91.42
61870;BME280;47810;42.264;23.826;2023-05-29T02:17:37;93541.00;;;12.55;91.27
61870;BME280;47810;42.264;23.826;2023-05-29T02:20:02;93537.41;;;12.56;90.70
61870;BME280;47810;42.264;23.826;2023-05-29T02:22:31;93539.56;;;12.40;91.22
61870;BME280;47810;42.264;23.826;2023-05-29T02:24:57;93537.66;;;12.53;90.66
61870;BME280;47810;42.264;23.826;2023-05-29T02:27:23;93543.66;;;12.55;90.70
61870;BME280;47810;42.264;23.826;2023-05-29T02:29:48;93535.00;;;12.64;90.71
61870;BME280;47810;42.264;23.826;2023-05-29T02:32:15;93537.16;;;12.70;90.86
61870;BME280;47810;42.264;23.826;2023-05-29T02:34:40;93535.47;;;12.58;89.48
61870;BME280;47810;42.264;23.826;2023-05-29T02:37:06;93531.63;;;12.62;89.25
61870;BME280;47810;42.264;23.826;2023-05-29T02:39:31;93539.81;;;12.37;90.03
61870;BME280;47810;42.264;23.826;2023-05-29T02:41:57;93534.63;;;12.35;90.99
61870;BME280;47810;42.264;23.826;2023-05-29T02:44:22;93539.53;;;12.28;90.58
61870;BME280;47810;42.264;23.826;2023-05-29T02:46:48;93540.28;;;12.64;89.85
61870;BME280;47810;42.264;23.826;2023-05-29T02:49:13;93540.28;;;12.64;89.28
61870;BME280;47810;42.264;23.826;2023-05-29T02:51:39;93542.47;;;12.81;88.12
61870;BME280;47810;42.264;23.826;2023-05-29T02:54:04;93531.16;;;12.91;87.85
61870;BME280;47810;42.264;23.826;2023-05-29T02:56:30;93542.47;;;12.70;88.97
61870;BME280;47810;42.264;23.826;2023-05-29T02:58:55;93536.56;;;12.55;90.47
61870;BME280;47810;42.264;23.826;2023-05-29T03:01:21;93539.56;;;12.51;91.43
61870;BME280;47810;42.264;23.826;2023-05-29T03:03:47;93544.13;;;12.38;91.40
61870;BME280;47810;42.264;23.826;2023-05-29T03:06:12;93546.19;;;12.34;91.72
61870;BME280;47810;42.264;23.826;2023-05-29T03:08:38;93547.66;;;12.49;91.43
61870;BME280;47810;42.264;23.826;2023-05-29T03:11:07;93552.47;;;12.67;91.33
61870;BME280;47810;42.264;23.826;2023-05-29T03:13:36;93558.84;;;12.75;91.27
61870;BME280;47810;42.264;23.826;2023-05-29T03:16:02;93555.22;;;12.88;91.27
61870;BME280;47810;42.264;23.826;2023-05-29T03:18:27;93557.88;;;12.88;91.46
61870;BME280;47810;42.264;23.826;2023-05-29T03:20:53;93565.59;;;12.91;90.68
61870;BME280;47810;42.264;23.826;2023-05-29T03:23:19;93575.22;;;12.92;91.43
61870;BME280;47810;42.264;23.826;2023-05-29T03:25:44;93572.31;;;12.83;92.22
61870;BME280;47810;42.264;23.826;2023-05-29T03:28:10;93562.91;;;13.13;91.52
61870;BME280;47810;42.264;23.826;2023-05-29T03:30:36;93572.09;;;12.98;91.98
61870;BME280;47810;42.264;23.826;2023-05-29T03:33:01;93572.69;;;12.79;92.80
61870;BME280;47810;42.264;23.826;2023-05-29T03:35:31;93569.69;;;12.72;92.99
61870;BME280;47810;42.264;23.826;2023-05-29T03:37:57;93575.94;;;12.82;92.92
61870;BME280;47810;42.264;23.826;2023-05-29T03:40:22;93574.63;;;12.66;94.15
61870;BME280;47810;42.264;23.826;2023-05-29T03:42:48;93586.41;;;12.50;94.08
61870;BME280;47810;42.264;23.826;2023-05-29T03:45:14;93581.59;;;12.67;93.50
61870;BME280;47810;42.264;23.826;2023-05-29T03:47:39;93576.19;;;12.79;92.93
61870;BME280;47810;42.264;23.826;2023-05-29T03:50:05;93577.97;;;12.90;92.80
61870;BME280;47810;42.264;23.826;2023-05-29T03:52:31;93578.31;;;12.97;92.98
61870;BME280;47810;42.264;23.826;2023-05-29T03:54:57;93580.03;;;12.98;92.92
61870;BME280;47810;42.264;23.826;2023-05-29T03:57:22;93586.63;;;13.15;92.45
61870;BME280;47810;42.264;23.826;2023-05-29T03:59:48;93592.53;;;13.18;91.20
61870;BME280;47810;42.264;23.826;2023-05-29T04:02:13;93607.75;;;13.27;90.78
61870;BME280;47810;42.264;23.826;2023-05-29T04:04:39;93601.97;;;13.34;91.14
61870;BME280;47810;42.264;23.826;2023-05-29T04:07:08;93601.47;;;13.40;90.81
61870;BME280;47810;42.264;23.826;2023-05-29T04:09:33;93609.66;;;13.25;91.01
61870;BME280;47810;42.264;23.826;2023-05-29T04:11:59;93614.25;;;13.35;90.86
61870;BME280;47810;42.264;23.826;2023-05-29T04:14:27;93603.13;;;13.41;89.57
61870;BME280;47810;42.264;23.826;2023-05-29T04:16:53;93603.97;;;13.19;90.63
61870;BME280;47810;42.264;23.826;2023-05-29T04:19:18;93605.34;;;13.13;91.53
61870;BME280;47810;42.264;23.826;2023-05-29T04:21:44;93598.91;;;13.38;91.85
61870;BME280;47810;42.264;23.826;2023-05-29T04:24:09;93593.75;;;13.25;92.18
61870;BME280;47810;42.264;23.826;2023-05-29T04:26:36;93601.13;;;13.33;91.85
61870;BME280;47810;42.264;23.826;2023-05-29T04:29:06;93599.31;;;13.34;92.23
61870;BME280;47810;42.264;23.826;2023-05-29T04:31:32;93605.09;;;13.39;92.23
61870;BME280;47810;42.264;23.826;2023-05-29T04:33:58;93605.44;;;13.45;91.84
61870;BME280;47810;42.264;23.826;2023-05-29T04:36:26;93614.69;;;13.51;91.83
61870;BME280;47810;42.264;23.826;2023-05-29T04:38:54;93609.72;;;13.58;91.56
61870;BME280;47810;42.264;23.826;2023-05-29T04:41:20;93610.81;;;13.66;91.40
61870;BME280;47810;42.264;23.826;2023-05-29T04:43:49;93618.50;;;13.69;90.89
61870;BME280;47810;42.264;23.826;2023-05-29T04:46:15;93618.25;;;13.72;91.44
61870;BME280;47810;42.264;23.826;2023-05-29T04:48:40;93629.13;;;13.69;90.96
61870;BME280;47810;42.264;23.826;2023-05-29T04:51:09;93625.72;;;13.79;91.06
61870;BME280;47810;42.264;23.826;2023-05-29T04:53:37;93630.06;;;13.80;90.82
61870;BME280;47810;42.264;23.826;2023-05-29T04:56:03;93622.09;;;13.80;91.59
61870;BME280;47810;42.264;23.826;2023-05-29T04:58:28;93629.72;;;14.05;90.87
61870;BME280;47810;42.264;23.826;2023-05-29T05:00:54;93631.25;;;13.87;91.16
61870;BME280;47810;42.264;23.826;2023-05-29T05:03:23;93630.22;;;13.99;90.38
61870;BME280;47810;42.264;23.826;2023-05-29T05:05:49;93631.19;;;14.09;89.79
61870;BME280;47810;42.264;23.826;2023-05-29T05:08:15;93630.56;;;14.06;90.17
61870;BME280;47810;42.264;23.826;2023-05-29T05:10:41;93635.97;;;14.15;90.31
61870;BME280;47810;42.264;23.826;2023-05-29T05:13:06;93635.03;;;14.05;90.18
61870;BME280;47810;42.264;23.826;2023-05-29T05:15:32;93636.41;;;14.32;90.64
61870;BME280;47810;42.264;23.826;2023-05-29T05:17:58;93632.75;;;14.33;90.78
61870;BME280;47810;42.264;23.826;2023-05-29T05:20:23;93642.09;;;14.48;90.63
61870;BME280;47810;42.264;23.826;2023-05-29T05:22:49;93640.91;;;14.52;89.91
61870;BME280;47810;42.264;23.826;2023-05-29T05:25:14;93644.66;;;14.71;89.22
61870;BME280;47810;42.264;23.826;2023-05-29T05:27:40;93644.16;;;14.77;89.30
61870;BME280;47810;42.264;23.826;2023-05-29T05:30:06;93645.75;;;14.89;88.73
61870;BME280;47810;42.264;23.826;2023-05-29T05:32:32;93644.59;;;14.82;86.13
61870;BME280;47810;42.264;23.826;2023-05-29T05:34:57;93642.25;;;14.88;86.35
61870;BME280;47810;42.264;23.826;2023-05-29T05:37:23;93644.31;;;14.85;86.77
61870;BME280;47810;42.264;23.826;2023-05-29T05:39:49;93646.25;;;14.83;86.77
61870;BME280;47810;42.264;23.826;2023-05-29T05:42:16;93647.19;;;14.93;85.64
61870;BME280;47810;42.264;23.826;2023-05-29T05:44:41;93649.69;;;14.95;86.01
61870;BME280;47810;42.264;23.826;2023-05-29T05:47:07;93647.81;;;15.06;85.95
61870;BME280;47810;42.264;23.826;2023-05-29T05:49:35;93647.59;;;15.19;85.25
61870;BME280;47810;42.264;23.826;2023-05-29T05:52:00;93642.88;;;15.32;85.65
61870;BME280;47810;42.264;23.826;2023-05-29T05:54:26;93644.25;;;15.27;85.17
61870;BME280;47810;42.264;23.826;2023-05-29T05:56:51;93647.44;;;15.51;84.61
61870;BME280;47810;42.264;23.826;2023-05-29T05:59:17;93646.56;;;15.41;84.28
61870;BME280;47810;42.264;23.826;2023-05-29T06:01:43;93647.53;;;15.40;84.36
61870;BME280;47810;42.264;23.826;2023-05-29T06:04:09;93644.31;;;15.46;84.71
61870;BME280;47810;42.264;23.826;2023-05-29T06:06:34;93646.38;;;15.33;84.03
61870;BME280;47810;42.264;23.826;2023-05-29T06:09:00;93649.41;;;15.59;84.20
61870;BME280;47810;42.264;23.826;2023-05-29T06:11:26;93647.25;;;15.74;84.45
61870;BME280;47810;42.264;23.826;2023-05-29T06:13:51;93647.84;;;15.87;84.73
61870;BME280;47810;42.264;23.826;2023-05-29T06:16:18;93637.22;;;15.97;84.79
61870;BME280;47810;42.264;23.826;2023-05-29T06:18:43;93648.41;;;16.00;84.91
61870;BME280;47810;42.264;23.826;2023-05-29T06:21:12;93642.00;;;16.13;84.81
61870;BME280;47810;42.264;23.826;2023-05-29T06:23:38;93643.13;;;16.20;84.12
61870;BME280;47810;42.264;23.826;2023-05-29T06:26:04;93656.59;;;16.28;83.69
61870;BME280;47810;42.264;23.826;2023-05-29T06:28:30;93649.84;;;16.24;83.57
61870;BME280;47810;42.264;23.826;2023-05-29T06:30:56;93651.25;;;16.28;83.67
61870;BME280;47810;42.264;23.826;2023-05-29T06:33:21;93649.44;;;16.38;84.05
61870;BME280;47810;42.264;23.826;2023-05-29T06:35:47;93650.84;;;16.42;83.17
61870;BME280;47810;42.264;23.826;2023-05-29T06:38:16;93656.31;;;16.50;82.11
61870;BME280;47810;42.264;23.826;2023-05-29T06:40:42;93654.75;;;16.67;80.25
61870;BME280;47810;42.264;23.826;2023-05-29T06:43:07;93654.34;;;16.52;80.50
61870;BME280;47810;42.264;23.826;2023-05-29T06:45:34;93650.41;;;16.66;82.38
61870;BME280;47810;42.264;23.826;2023-05-29T06:48:00;93651.81;;;16.80;83.79
61870;BME280;47810;42.264;23.826;2023-05-29T06:50:29;93657.72;;;16.84;83.07
61870;BME280;47810;42.264;23.826;2023-05-29T06:52:55;93652.09;;;16.77;82.43
61870;BME280;47810;42.264;23.826;2023-05-29T06:55:20;93656.31;;;16.89;82.36
61870;BME280;47810;42.264;23.826;2023-05-29T06:57:46;93651.81;;;16.80;81.64
61870;BME280;47810;42.264;23.826;2023-05-29T07:00:12;93652.50;;;17.02;81.35
61870;BME280;47810;42.264;23.826;2023-05-29T07:02:37;93651.50;;;17.03;79.76
61870;BME280;47810;42.264;23.826;2023-05-29T07:05:03;93648.72;;;16.75;80.14
61870;BME280;47810;42.264;23.826;2023-05-29T07:07:29;93643.41;;;16.75;79.94
61870;BME280;47810;42.264;23.826;2023-05-29T07:09:55;93652.09;;;16.87;78.50
61870;BME280;47810;42.264;23.826;2023-05-29T07:12:21;93645.91;;;16.86;79.16
61870;BME280;47810;42.264;23.826;2023-05-29T07:14:47;93643.50;;;17.03;79.80
61870;BME280;47810;42.264;23.826;2023-05-29T07:17:13;93649.28;;;16.79;78.33
61870;BME280;47810;42.264;23.826;2023-05-29T07:19:39;93636.91;;;16.97;77.97
61870;BME280;47810;42.264;23.826;2023-05-29T07:22:04;93642.03;;;17.55;78.95
61870;BME280;47810;42.264;23.826;2023-05-29T07:24:30;93640.06;;;17.95;80.04
61870;BME280;47810;42.264;23.826;2023-05-29T07:26:55;93635.22;;;17.80;75.67
61870;BME280;47810;42.264;23.826;2023-05-29T07:29:21;93638.53;;;17.92;75.55
61870;BME280;47810;42.264;23.826;2023-05-29T07:31:49;93638.81;;;17.89;74.53
61870;BME280;47810;42.264;23.826;2023-05-29T07:34:14;93640.44;;;18.00;74.78
61870;BME280;47810;42.264;23.826;2023-05-29T07:36:56;93641.50;;;18.07;71.26
61870;BME280;47810;42.264;23.826;2023-05-29T07:39:22;93631.50;;;18.09;70.99
61870;BME280;47810;42.264;23.826;2023-05-29T07:41:47;93642.97;;;18.19;72.64
61870;BME280;47810;42.264;23.826;2023-05-29T07:44:13;93652.63;;;18.48;73.81
61870;BME280;47810;42.264;23.826;2023-05-29T07:46:38;93646.56;;;18.46;74.13
61870;BME280;47810;42.264;23.826;2023-05-29T07:49:04;93643.59;;;18.49;72.99
61870;BME280;47810;42.264;23.826;2023-05-29T07:51:30;93643.06;;;18.63;73.37
61870;BME280;47810;42.264;23.826;2023-05-29T07:53:56;93647.28;;;18.66;72.87
61870;BME280;47810;42.264;23.826;2023-05-29T07:56:21;93640.38;;;18.45;71.02
61870;BME280;47810;42.264;23.826;2023-05-29T07:58:47;93645.66;;;18.55;71.02
61870;BME280;47810;42.264;23.826;2023-05-29T08:01:13;93647.97;;;18.50;70.48
61870;BME280;47810;42.264;23.826;2023-05-29T08:03:40;93650.63;;;18.50;69.48
61870;BME280;47810;42.264;23.826;2023-05-29T08:06:06;93649.47;;;18.70;70.62
61870;BME280;47810;42.264;23.826;2023-05-29T08:08:32;93642.19;;;18.72;70.37
61870;BME280;47810;42.264;23.826;2023-05-29T08:10:57;93649.63;;;18.87;68.64
61870;BME280;47810;42.264;23.826;2023-05-29T08:13:23;93647.81;;;18.69;66.45
61870;BME280;47810;42.264;23.826;2023-05-29T08:15:48;93650.09;;;18.64;67.25
61870;BME280;47810;42.264;23.826;2023-05-29T08:18:14;93641.47;;;18.34;68.39
61870;BME280;47810;42.264;23.826;2023-05-29T08:20:39;93643.38;;;18.24;67.99
61870;BME280;47810;42.264;23.826;2023-05-29T08:23:05;93638.25;;;18.67;69.24
61870;BME280;47810;42.264;23.826;2023-05-29T08:25:31;93635.50;;;18.94;67.06
61870;BME280;47810;42.264;23.826;2023-05-29T08:27:57;93636.03;;;19.24;65.71
61870;BME280;47810;42.264;23.826;2023-05-29T08:30:22;93631.66;;;19.23;65.02
61870;BME280;47810;42.264;23.826;2023-05-29T08:32:48;93629.28;;;19.46;66.61
61870;BME280;47810;42.264;23.826;2023-05-29T08:35:15;93634.78;;;19.70;65.83
61870;BME280;47810;42.264;23.826;2023-05-29T08:37:41;93646.72;;;19.50;63.83
61870;BME280;47810;42.264;23.826;2023-05-29T08:40:07;93653.19;;;19.65;65.13
61870;BME280;47810;42.264;23.826;2023-05-29T08:42:36;93642.63;;;19.38;62.14
61870;BME280;47810;42.264;23.826;2023-05-29T08:45:02;93642.63;;;19.38;64.90
61870;BME280;47810;42.264;23.826;2023-05-29T08:47:29;93644.03;;;19.50;66.31
61870;BME280;47810;42.264;23.826;2023-05-29T08:49:57;93642.81;;;19.70;66.60
61870;BME280;47810;42.264;23.826;2023-05-29T08:52:24;93641.72;;;19.81;65.44
61870;BME280;47810;42.264;23.826;2023-05-29T08:54:53;93637.00;;;19.83;65.72
61870;BME280;47810;42.264;23.826;2023-05-29T08:57:19;93633.88;;;19.88;65.21
61870;BME280;47810;42.264;23.826;2023-05-29T08:59:45;93630.53;;;19.94;65.57
61870;BME280;47810;42.264;23.826;2023-05-29T09:02:12;93636.59;;;20.12;66.59
61870;BME280;47810;42.264;23.826;2023-05-29T09:04:37;93639.00;;;20.23;66.65
61870;BME280;47810;42.264;23.826;2023-05-29T09:07:03;93631.28;;;20.29;64.87
61870;BME280;47810;42.264;23.826;2023-05-29T09:09:29;93631.97;;;20.22;63.43
61870;BME280;47810;42.264;23.826;2023-05-29T09:11:57;93633.97;;;20.20;63.49
61870;BME280;47810;42.264;23.826;2023-05-29T09:17:02;93627.59;;;20.13;63.13
61870;BME280;47810;42.264;23.826;2023-05-29T09:19:29;93618.03;;;20.11;63.82
61870;BME280;47810;42.264;23.826;2023-05-29T09:22:05;93624.53;;;20.08;63.37
61870;BME280;47810;42.264;23.826;2023-05-29T09:24:35;93620.88;;;20.17;63.46
61870;BME280;47810;42.264;23.826;2023-05-29T09:27:02;93622.75;;;20.33;63.28
61870;BME280;47810;42.264;23.826;2023-05-29T09:29:32;93618.91;;;20.44;63.27
61870;BME280;47810;42.264;23.826;2023-05-29T09:31:58;93623.94;;;20.31;63.15
61870;BME280;47810;42.264;23.826;2023-05-29T09:34:24;93635.34;;;20.41;63.39
61870;BME280;47810;42.264;23.826;2023-05-29T09:36:52;93623.59;;;20.34;63.30
61870;BME280;47810;42.264;23.826;2023-05-29T09:39:18;93627.31;;;20.49;64.92
61870;BME280;47810;42.264;23.826;2023-05-29T09:41:46;93626.69;;;20.55;63.48
61870;BME280;47810;42.264;23.826;2023-05-29T09:44:13;93620.16;;;20.90;61.29
61870;BME280;47810;42.264;23.826;2023-05-29T09:46:40;93623.81;;;21.06;60.89
61870;BME280;47810;42.264;23.826;2023-05-29T09:49:12;93619.66;;;21.03;56.98
61870;BME280;47810;42.264;23.826;2023-05-29T09:51:38;93624.69;;;21.06;57.73
61870;BME280;47810;42.264;23.826;2023-05-29T09:54:17;93620.28;;;21.22;57.13
61870;BME280;47810;42.264;23.826;2023-05-29T09:56:43;93620.63;;;21.91;56.39
61870;BME280;47810;42.264;23.826;2023-05-29T09:59:10;93605.38;;;21.83;52.79
61870;BME280;47810;42.264;23.826;2023-05-29T10:01:36;93610.59;;;21.76;54.86
61870;BME280;47810;42.264;23.826;2023-05-29T10:04:03;93609.75;;;21.76;54.09
61870;BME280;47810;42.264;23.826;2023-05-29T10:06:28;93608.91;;;21.83;57.82
61870;BME280;47810;42.264;23.826;2023-05-29T10:08:54;93609.81;;;21.59;58.68
61870;BME280;47810;42.264;23.826;2023-05-29T10:11:21;93611.56;;;21.20;61.03
61870;BME280;47810;42.264;23.826;2023-05-29T10:13:50;93607.22;;;21.35;58.77
61870;BME280;47810;42.264;23.826;2023-05-29T10:16:16;93608.69;;;21.46;57.75
61870;BME280;47810;42.264;23.826;2023-05-29T10:18:47;93608.53;;;21.23;58.09
61870;BME280;47810;42.264;23.826;2023-05-29T10:21:15;93611.19;;;21.31;57.63
61870;BME280;47810;42.264;23.826;2023-05-29T10:23:42;93613.25;;;21.12;55.16
61870;BME280;47810;42.264;23.826;2023-05-29T10:26:13;93609.91;;;21.10;57.46
61870;BME280;47810;42.264;23.826;2023-05-29T10:28:41;93607.19;;;21.27;59.29
61870;BME280;47810;42.264;23.826;2023-05-29T10:31:10;93603.50;;;21.20;57.66
61870;BME280;47810;42.264;23.826;2023-05-29T10:38:32;93609.56;;;21.05;59.50
61870;BME280;47810;42.264;23.826;2023-05-29T10:41:19;93608.88;;;21.11;58.71
61870;BME280;47810;42.264;23.826;2023-05-29T10:43:45;93607.53;;;21.24;58.19
61870;BME280;47810;42.264;23.826;2023-05-29T10:46:11;93607.06;;;20.63;60.01
61870;BME280;47810;42.264;23.826;2023-05-29T10:48:37;93604.88;;;21.07;58.05
61870;BME280;47810;42.264;23.826;2023-05-29T10:51:04;93605.56;;;20.85;59.40
61870;BME280;47810;42.264;23.826;2023-05-29T10:53:31;93611.59;;;20.79;60.10
61870;BME280;47810;42.264;23.826;2023-05-29T10:55:58;93599.88;;;20.55;59.95
61870;BME280;47810;42.264;23.826;2023-05-29T11:01:04;93595.09;;;21.31;62.38
61870;BME280;47810;42.264;23.826;2023-05-29T11:03:31;93595.75;;;21.33;62.70
61870;BME280;47810;42.264;23.826;2023-05-29T11:06:01;93601.44;;;21.54;62.44
61870;BME280;47810;42.264;23.826;2023-05-29T11:11:37;93588.31;;;21.59;60.00
61870;BME280;47810;42.264;23.826;2023-05-29T11:14:04;93596.34;;;21.68;61.95
61870;BME280;47810;42.264;23.826;2023-05-29T11:18:56;93587.88;;;21.87;61.58
61870;BME280;47810;42.264;23.826;2023-05-29T11:24:01;93577.53;;;20.96;56.83
61870;BME280;47810;42.264;23.826;2023-05-29T11:26:28;93583.41;;;20.66;58.44
61870;BME280;47810;42.264;23.826;2023-05-29T11:28:58;93580.06;;;20.89;60.19
61870;BME280;47810;42.264;23.826;2023-05-29T11:31:24;93582.72;;;21.13;61.44
61870;BME280;47810;42.264;23.826;2023-05-29T11:33:50;93587.72;;;21.25;61.34
61870;BME280;47810;42.264;23.826;2023-05-29T11:36:19;93592.41;;;21.39;59.15
61870;BME280;47810;42.264;23.826;2023-05-29T11:38:45;93592.38;;;21.47;59.22
61870;BME280;47810;42.264;23.826;2023-05-29T11:41:11;93594.09;;;21.24;59.93
61870;BME280;47810;42.264;23.826;2023-05-29T11:43:37;93592.44;;;21.23;58.27
61870;BME280;47810;42.264;23.826;2023-05-29T11:46:13;93592.81;;;21.03;60.72
61870;BME280;47810;42.264;23.826;2023-05-29T11:48:44;93592.13;;;20.85;60.14
61870;BME280;47810;42.264;23.826;2023-05-29T11:51:10;93582.75;;;20.89;63.76
61870;BME280;47810;42.264;23.826;2023-05-29T11:53:36;93586.25;;;20.73;65.03
61870;BME280;47810;42.264;23.826;2023-05-29T11:56:08;93591.47;;;20.66;67.53
61870;BME280;47810;42.264;23.826;2023-05-29T11:58:35;93589.59;;;20.42;69.78
61870;BME280;47810;42.264;23.826;2023-05-29T12:01:01;93593.91;;;20.11;68.53
61870;BME280;47810;42.264;23.826;2023-05-29T12:03:27;93592.00;;;19.95;69.94
61870;BME280;47810;42.264;23.826;2023-05-29T12:05:52;93604.22;;;19.89;70.42
61870;BME280;47810;42.264;23.826;2023-05-29T12:08:23;93585.59;;;19.80;68.40
61870;BME280;47810;42.264;23.826;2023-05-29T12:10:50;93590.25;;;19.69;70.20
61870;BME280;47810;42.264;23.826;2023-05-29T12:13:18;93592.94;;;19.69;69.63
61870;BME280;47810;42.264;23.826;2023-05-29T12:15:44;93587.91;;;19.66;69.59
61870;BME280;47810;42.264;23.826;2023-05-29T12:18:09;93597.97;;;19.72;68.94
61870;BME280;47810;42.264;23.826;2023-05-29T12:20:35;93596.16;;;19.81;70.75
61870;BME280;47810;42.264;23.826;2023-05-29T12:23:01;93590.38;;;20.10;71.06
61870;BME280;47810;42.264;23.826;2023-05-29T12:25:28;93583.72;;;20.39;67.28
61870;BME280;47810;42.264;23.826;2023-05-29T12:27:56;93583.06;;;20.45;67.50
61870;BME280;47810;42.264;23.826;2023-05-29T12:30:23;93571.13;;;20.15;66.87
61870;BME280;47810;42.264;23.826;2023-05-29T12:32:51;93571.63;;;20.18;72.44
61870;BME280;47810;42.264;23.826;2023-05-29T12:37:45;93567.13;;;20.35;64.79
61870;BME280;47810;42.264;23.826;2023-05-29T12:40:18;93567.81;;;20.29;63.21
61870;BME280;47810;42.264;23.826;2023-05-29T12:42:45;93564.28;;;20.86;66.03
61870;BME280;47810;42.264;23.826;2023-05-29T12:45:11;93560.59;;;20.79;67.00
61870;BME280;47810;42.264;23.826;2023-05-29T12:47:37;93568.19;;;20.59;69.63
61870;BME280;47810;42.264;23.826;2023-05-29T12:52:52;93558.28;;;20.84;65.18
61870;BME280;47810;42.264;23.826;2023-05-29T12:55:18;93551.91;;;20.52;66.88
61870;BME280;47810;42.264;23.826;2023-05-29T12:57:43;93556.53;;;20.25;65.21
61870;BME280;47810;42.264;23.826;2023-05-29T13:00:12;93552.69;;;20.12;64.37
61870;BME280;47810;42.264;23.826;2023-05-29T13:02:37;93543.84;;;20.36;66.16
61870;BME280;47810;42.264;23.826;2023-05-29T13:05:03;93550.56;;;20.56;62.87
61870;BME280;47810;42.264;23.826;2023-05-29T13:07:28;93549.03;;;20.54;57.00
61870;BME280;47810;42.264;23.826;2023-05-29T13:09:54;93545.84;;;20.42;59.73
61870;BME280;47810;42.264;23.826;2023-05-29T13:12:20;93553.41;;;20.79;60.40
61870;BME280;47810;42.264;23.826;2023-05-29T13:14:48;93560.94;;;20.92;61.82
61870;BME280;47810;42.264;23.826;2023-05-29T13:17:14;93562.97;;;20.65;68.25
61870;BME280;47810;42.264;23.826;2023-05-29T13:19:39;93556.75;;;20.32;66.45